This is the latest recevied weather packets stored in our database for station/object K4IR. If no packets are shown the sender has not sent any weather packets the latest 1 day(s).
| Time | Temp. | Humidity | Pressure | Rain* | Wind** | Luminosity | Snow |
|---|---|---|---|---|---|---|---|
| 1778016044 | 22.22° C | 66% | 1017.4 hPa | 0 mm | 1.34 m/s, 13° | 128 W/m² | - |
| 1778015443 | 22.22° C | 67% | 1017.6 hPa | 0 mm | 0.45 m/s, 154° | 412 W/m² | - |
| 1778014837 | 22.22° C | 66% | 1017.3 hPa | 0 mm | 1.34 m/s, 211° | 104 W/m² | - |
| 1778014238 | 22.22° C | 66% | 1017.4 hPa | 0 mm | 0 m/s | 121 W/m² | - |
| 1778013632 | 22.78° C | 62% | 1017.3 hPa | 0 mm | 0.89 m/s, 309° | 123 W/m² | - |
| 1778013032 | 22.78° C | 60% | 1017.4 hPa | 0 mm | 0.45 m/s, 263° | 168 W/m² | - |
| 1778012430 | 23.33° C | 58% | 1017 hPa | 0 mm | 1.34 m/s, 336° | 220 W/m² | - |
| 1778011824 | 23.33° C | 59% | 1017.2 hPa | 0 mm | 0.45 m/s, 89° | 214 W/m² | - |
| 1778011219 | 25.56° C | 51% | 1017.4 hPa | 0 mm | 1.34 m/s, 260° | 616 W/m² | - |
| 1778010618 | 25° C | 55% | 1017.6 hPa | 0 mm | 0.89 m/s, 31° | 675 W/m² | - |
| 1778010016 | 24.44° C | 56% | 1017.8 hPa | 0 mm | 0.89 m/s, 157° | 240 W/m² | - |
| 1778009410 | 25° C | 55% | 1017.9 hPa | 0 mm | 0.45 m/s, 84° | 711 W/m² | - |
| 1778008806 | 24.44° C | 55% | 1017.9 hPa | 0 mm | 1.34 m/s, 359° | 712 W/m² | - |
| 1778008201 | 24.44° C | 56% | 1018.1 hPa | 0 mm | 1.34 m/s, 71° | 813 W/m² | - |
| 1778007598 | 24.44° C | 57% | 1017.9 hPa | 0 mm | 0.45 m/s, 93° | 840 W/m² | - |
| 1778006997 | 24.44° C | 56% | 1017.8 hPa | 0 mm | 0.45 m/s, 71° | 255 W/m² | - |
| 1778006397 | 25° C | 56% | 1018 hPa | 0 mm | 0.89 m/s, 117° | 310 W/m² | - |
| 1778005796 | 25° C | 53% | 1018.3 hPa | 0 mm | 1.34 m/s, 209° | 723 W/m² | - |
| 1778005195 | 25° C | 53% | 1018.1 hPa | 0 mm | 1.34 m/s, 7° | 857 W/m² | - |
| 1778004596 | 25° C | 54% | 1018.4 hPa | 0 mm | 1.34 m/s, 111° | 896 W/m² | - |
| 1778003995 | 23.33° C | 60% | 1018.4 hPa | 0 mm | 0.89 m/s, 312° | 985 W/m² | - |
| 1778003393 | 23.89° C | 59% | 1018.3 hPa | 0 mm | 1.34 m/s, 62° | 399 W/m² | - |
| 1778002792 | 23.33° C | 60% | 1018.5 hPa | 0 mm | 0.45 m/s, 127° | 225 W/m² | - |
| 1778002192 | 23.33° C | 58% | 1018.7 hPa | 0 mm | 1.34 m/s, 26° | 265 W/m² | - |
| 1778001590 | 24.44° C | 58% | 1018.5 hPa | 0 mm | 0.45 m/s, 97° | 930 W/m² | - |
* Rain latest hour (hover to see other rain measurements)
** Current wind speed in m/s (hover to see current wind gust speed)